PS38 weather

Bert's Airport
Birdsboro - Pottstown, Pennsylvania, United States

Public forecast

Using degrees Fahrenheit for public forecast. Weather courtesy of forecast.io.

METAR (pilot weather report)

Closest report is Heritage Field, 9.2 nm (17.0 km) ESE. Retrieved 2019/07/18 23:40 UTC (0 seconds ago):

KPTW 182340Z AUTO 00000KT 10SM BKN013 BKN060 26/25 A2989 RMK AO2 T02610250 $

TAF (pilot weather forecast)

Closest forecast is Reading Regional Carl A Spaatz Field, 11.4 nm (21.1 km) WNW. Retrieved 2019/07/18 18:24 UTC (5 hours ago):

TAF KRDG 181722Z 1818/1918 32004KT P6SM VCTS BKN025CB TEMPO 1818/1820 4SM SHRA SCT025 OVC040 FM182300 VRB02KT P6SM SCT025 BKN040 FM190300 VRB02KT 5SM BR SCT010 BKN200 FM190800 00000KT 3SM BR BKN010 FM191400 25004KT 6SM HZ SCT015 BKN200